Date,TemperatureHighF,TemperatureAvgF,TemperatureLowF,DewpointHighF,DewpointAvgF,DewpointLowF,HumidityHigh,HumidityAvg,HumidityLow,PressureMaxIn,PressureMinIn,WindSpeedMaxMPH,WindSpeedAvgMPH,GustSpeedMaxMPH,PrecipitationSumIn
2013-1-1,76.1,61.7,49.8,63.1,-25.6,-99.9,74,28,1,30.19,30.01,14,1,14,0.00
2013-1-2,78.3,65.7,52.3,67.5,-21.0,-99.9,72,27,1,30.03,29.93,12,1,12,0.23
2013-1-3,70.8,63.5,58.2,56.6,-45.8,-99.9,61,17,1,30.16,30.00,6,0,6,0.07
2013-1-4,61.5,57.9,55.3,-99.9,-99.9,-99.9,1,1,1,30.26,30.14,5,0,5,0.21
2013-1-5,74.0,59.4,51.0,63.5,-12.8,-99.9,90,42,1,30.28,30.18,5,0,5,0.21
2013-1-6,79.2,65.1,59.3,67.7,60.9,57.0,95,87,63,30.19,30.03,6,0,6,0.01
2013-1-7,69.7,62.3,54.2,63.8,58.4,52.8,97,88,69,30.20,30.10,5,0,5,0.31
2013-1-8,78.2,69.8,64.0,70.8,67.2,63.0,98,92,76,30.21,30.10,14,1,14,0.01
2013-1-9,79.0,70.4,63.4,71.6,68.1,63.1,100,93,75,30.29,30.18,13,1,13,0.24
2013-1-10,78.8,69.4,61.1,71.6,65.3,60.8,100,88,67,30.30,30.21,16,2,16,0.01
2013-1-11,81.6,68.8,59.4,70.5,63.6,58.6,100,85,49,30.24,30.14,13,1,13,0.00
2013-1-12,80.4,67.3,56.5,69.5,62.2,56.2,100,86,53,30.18,30.07,10,1,10,0.22
2013-1-13,80.8,67.2,55.7,67.9,62.0,55.1,100,85,53,30.15,30.04,11,1,11,0.01
2013-1-14,80.2,67.5,57.5,68.3,62.2,57.1,100,85,52,30.17,30.08,11,1,11,0.24
2013-1-15,78.0,67.5,58.3,69.1,63.5,57.6,99,88,67,30.13,30.03,12,1,12,0.00
2013-1-16,81.7,68.2,57.6,67.5,62.1,57.2,100,84,48,30.08,29.97,11,1,11,0.01
2013-1-17,78.5,64.0,50.5,68.9,58.8,43.6,99,84,66,30.06,29.88,23,4,23,0.01
2013-1-18,68.1,56.2,41.7,58.6,47.9,35.3,98,74,63,30.26,30.06,13,1,14,0.01
2013-1-19,75.0,65.1,56.3,62.9,57.8,52.1,94,78,60,30.27,30.13,11,0,11,0.00
2013-1-20,73.0,62.9,56.0,63.3,57.5,53.3,98,84,54,30.16,30.04,5,0,6,0.00
2013-1-21,73.4,63.4,56.7,59.1,56.4,53.1,93,79,54,30.07,29.97,7,0,7,0.00
2013-1-22,62.1,54.9,43.2,53.4,44.7,35.1,92,70,38,30.25,30.03,9,0,9,0.00
2013-1-23,66.0,51.3,38.9,49.1,40.9,32.6,93,70,43,30.34,30.24,7,0,7,0.00
2013-1-24,76.8,56.4,40.8,53.3,46.6,39.2,96,74,39,30.28,30.17,14,0,14,0.00
2013-1-25,75.2,59.8,47.4,59.5,51.4,46.3,98,77,45,30.27,30.14,7,0,7,0.00
2013-1-26,78.2,59.7,42.5,59.9,52.8,41.4,98,80,47,30.24,30.12,8,0,8,0.00
2013-1-27,77.8,64.1,51.2,64.9,58.6,50.4,99,84,56,30.30,30.19,14,1,14,0.00
2013-1-28,76.7,69.8,64.9,64.6,62.5,60.4,90,78,63,30.33,30.22,14,3,14,0.00
2013-1-29,79.4,71.4,65.8,69.3,65.9,63.8,95,83,65,30.24,30.08,14,2,14,0.00
2013-1-30,82.9,73.4,64.7,66.5,64.0,60.3,98,75,48,30.09,29.83,19,3,20,0.00
2013-1-31,71.5,57.5,40.4,65.5,44.0,28.8,93,64,27,30.20,29.84,18,1,18,0.03
2013-2-1,71.1,50.7,35.6,42.9,35.0,27.2,90,61,22,30.32,30.20,12,0,12,0.00
2013-2-2,71.0,53.0,37.8,51.1,42.5,35.4,95,71,30,30.28,30.12,8,0,8,0.00
2013-2-3,71.8,53.3,38.8,53.1,42.2,35.7,98,71,28,30.15,30.01,15,0,15,0.00
2013-2-4,69.0,52.4,37.6,50.4,42.3,36.3,98,73,34,30.11,30.00,10,0,10,0.00
2013-2-5,77.3,58.6,44.1,54.6,47.3,41.0,96,70,35,30.07,29.96,13,1,13,0.00
2013-2-6,74.0,65.2,56.8,64.7,60.1,52.3,94,84,71,30.10,30.00,9,0,9,0.00
2013-2-7,79.3,69.0,58.1,66.3,62.2,57.1,98,81,51,30.06,29.82,14,2,14,0.02
2013-2-8,79.7,67.7,56.2,64.6,60.1,55.0,96,79,47,30.05,29.82,15,1,15,0.01
2013-2-9,72.2,60.8,50.9,59.6,54.1,50.1,98,80,53,30.20,30.04,5,0,6,0.00
2013-2-10,73.7,66.6,61.4,59.3,56.3,53.1,87,70,57,30.27,30.15,19,4,19,0.00
2013-2-11,81.2,68.2,54.5,64.8,60.1,53.5,98,78,49,30.18,30.03,16,2,16,0.04
2013-2-12,83.2,71.3,62.4,67.3,63.5,60.8,97,79,48,30.07,29.88,16,2,16,0.00
2013-2-13,81.3,69.7,61.4,69.1,65.5,59.7,97,88,61,29.93,29.77,23,3,23,0.42
2013-2-14,64.5,60.4,53.5,61.3,58.0,52.7,98,92,77,30.04,29.89,5,0,5,0.38
2013-2-15,68.3,56.5,49.4,59.1,52.6,48.2,97,88,64,30.05,29.94,10,0,10,0.01
2013-2-16,67.9,53.9,45.0,52.5,44.3,27.0,97,73,40,30.09,29.85,19,1,19,0.00
2013-2-17,57.2,43.3,31.5,32.6,23.5,10.9,92,50,16,30.32,30.09,10,0,10,0.00
2013-2-18,64.4,48.1,29.4,48.1,38.2,25.0,94,71,44,30.35,30.20,14,1,14,0.00
2013-2-19,77.4,61.0,43.4,58.2,50.5,42.3,98,72,43,30.20,30.00,21,2,21,0.00
2013-2-20,69.5,61.4,53.0,58.4,53.0,49.2,93,75,51,30.12,30.02,9,0,9,0.00
2013-2-21,77.7,64.8,50.8,65.6,58.5,49.2,96,82,58,30.09,29.99,9,0,9,0.00
2013-2-22,82.5,71.6,63.4,69.9,66.5,61.9,99,85,52,30.07,29.97,16,2,16,0.00
2013-2-23,85.8,75.3,69.1,69.5,66.0,60.2,96,75,46,29.97,29.82,19,3,19,0.00
2013-2-24,73.8,67.7,62.1,69.6,64.2,60.8,97,89,71,29.94,29.83,6,0,6,0.00
2013-2-25,84.5,71.4,62.6,72.5,66.6,61.4,99,86,51,29.90,29.74,18,1,18,0.10
2013-2-26,76.8,70.6,63.7,72.2,67.0,57.9,97,89,62,29.82,29.69,20,3,20,0.24
2013-2-27,76.3,63.7,53.6,60.8,54.8,46.1,93,75,39,29.94,29.82,10,1,10,0.00
2013-2-28,73.5,59.6,46.8,54.1,46.9,42.2,98,66,35,29.97,29.81,17,2,17,0.00
2013-3-1,67.3,55.7,46.9,46.1,41.5,35.3,91,61,33,29.96,29.84,11,0,11,0.00
2013-3-2,62.2,50.3,39.9,40.7,32.9,23.0,81,54,24,30.00,29.87,28,2,28,0.00
2013-3-3,56.3,43.3,33.2,34.6,30.7,28.5,85,63,38,30.12,29.94,18,1,18,0.00
2013-3-4,63.6,46.9,31.4,43.0,33.9,22.9,92,66,23,30.20,30.09,11,0,11,0.00
2013-3-5,75.7,58.3,38.8,54.4,42.6,37.2,96,62,28,30.16,29.94,18,2,18,0.00
2013-3-6,69.0,59.3,45.4,60.7,39.6,26.0,93,53,22,30.10,29.85,20,3,20,0.09
2013-3-7,65.0,50.4,37.7,48.4,40.6,31.2,94,70,51,30.18,30.08,9,0,9,0.00
2013-3-8,70.5,53.3,39.3,50.8,44.2,38.5,98,76,39,30.19,30.12,7,0,7,0.00
2013-3-9,72.2,58.1,41.7,54.1,49.1,40.1,97,75,48,30.21,30.11,12,1,12,0.14
2013-3-10,73.7,62.1,48.7,60.1,54.1,47.9,98,77,52,30.17,30.08,18,2,18,0.00
2013-3-11,76.6,64.9,51.0,62.9,56.9,50.0,99,78,51,30.10,29.90,15,2,15,0.17
2013-3-12,71.7,66.8,58.6,66.9,62.5,55.0,94,86,77,29.98,29.84,14,2,14,0.02
2013-3-13,71.9,58.2,46.4,55.0,44.1,35.4,92,64,28,30.14,29.98,7,0,7,0.17
2013-3-14,62.1,51.3,41.0,43.6,38.7,31.6,92,64,45,30.23,30.11,7,0,7,0.00
2013-3-15,71.2,52.6,35.9,46.2,39.2,32.4,97,67,28,30.25,30.12,9,0,9,0.00
2013-3-16,79.9,60.1,41.4,52.5,44.6,39.1,98,64,25,30.15,29.99,12,1,12,0.07
2013-3-17,77.1,61.7,44.9,61.8,50.3,42.5,97,70,36,30.12,29.96,16,1,16,0.02
2013-3-18,78.6,70.4,63.4,65.0,61.8,59.0,93,76,55,30.05,29.85,14,2,14,0.08
2013-3-19,87.2,71.2,61.7,64.6,61.7,55.6,96,75,37,30.01,29.86,14,1,14,0.00
2013-3-20,73.7,64.4,55.8,65.6,59.8,54.7,97,86,65,29.95,29.77,6,0,7,0.39
2013-3-21,71.8,57.3,45.3,55.0,43.1,30.1,98,66,22,29.93,29.83,13,0,14,0.01
2013-3-22,73.5,58.3,40.7,58.4,47.1,39.4,97,70,40,30.00,29.88,12,1,12,0.00
2013-3-23,84.7,69.1,59.4,73.7,64.7,57.9,99,87,58,29.96,29.72,16,1,16,0.14
2013-3-24,81.3,73.1,67.9,71.7,68.1,64.6,96,85,70,29.82,29.53,37,5,37,0.03
2013-3-25,74.0,64.5,51.7,64.7,44.6,28.2,94,55,19,29.99,29.65,18,2,18,0.09
2013-3-26,64.5,52.1,41.4,39.1,29.0,21.5,64,43,20,30.20,29.98,19,1,19,0.00
2013-3-27,64.1,48.4,36.7,41.5,35.2,29.4,91,63,30,30.27,30.17,10,0,10,0.13
2013-3-28,68.9,52.7,37.4,45.8,39.8,31.1,96,67,27,30.26,30.17,13,0,13,0.00
2013-3-29,72.3,55.6,38.2,51.2,40.2,33.9,98,64,26,30.30,30.18,12,1,12,0.00
2013-3-30,77.3,60.1,40.8,54.9,47.3,39.4,96,67,33,30.23,30.08,17,1,17,0.07
2013-3-31,81.3,69.0,56.9,62.4,54.2,45.9,92,63,32,30.15,29.95,17,2,17,0.00
2013-4-1,84.7,71.0,59.8,65.1,60.1,57.6,96,72,42,30.00,29.86,19,3,19,0.12
2013-4-2,80.1,68.9,58.9,62.9,57.7,46.3,98,72,32,30.08,29.94,12,0,12,0.00
2013-4-3,80.3,68.3,55.9,67.3,62.2,55.1,99,83,52,30.05,29.95,16,2,16,0.25
2013-4-4,75.6,70.5,66.0,70.8,66.6,63.4,98,88,73,30.03,29.81,23,2,23,0.19
2013-4-5,77.3,65.3,57.9,70.1,61.7,54.0,94,88,68,29.97,29.76,11,1,11,0.01
2013-4-6,74.1,64.2,52.1,62.5,57.2,50.6,96,79,62,30.11,29.95,9,0,9,0.00
2013-4-7,77.7,66.9,55.8,64.4,58.8,55.0,99,78,51,30.15,30.02,14,2,14,0.00
2013-4-8,80.7,68.1,54.6,65.8,61.2,53.8,99,81,52,30.12,30.04,16,2,16,0.01
2013-4-9,80.3,71.3,61.7,68.8,63.2,55.6,99,78,47,30.16,30.05,17,2,17,0.00
2013-4-10,80.6,71.1,60.3,69.9,65.7,59.4,99,84,65,30.12,29.98,16,2,16,0.01
2013-4-11,85.0,76.2,69.0,71.9,70.2,68.2,98,83,62,29.98,29.80,20,3,20,0.00
2013-4-12,84.5,78.0,72.6,73.2,70.7,67.6,93,79,60,29.87,29.77,20,4,20,0.00
2013-4-13,81.0,72.3,64.9,69.9,62.4,51.2,97,74,41,29.97,29.84,8,0,8,0.00
2013-4-14,80.4,69.6,58.2,73.5,66.4,57.2,99,90,75,29.96,29.81,15,2,15,2.51
2013-4-15,85.9,73.8,64.5,69.8,65.2,61.1,97,77,49,30.06,29.86,12,1,12,0.02
2013-4-16,82.1,73.7,66.0,72.0,68.0,64.8,99,84,60,30.14,30.03,13,1,13,0.00
2013-4-17,82.2,72.6,64.0,72.4,66.8,63.4,100,84,60,30.13,30.04,13,0,14,0.01
2013-4-18,83.5,74.1,64.5,72.0,68.1,63.8,99,83,57,30.05,29.94,15,2,15,0.01
2013-4-19,88.7,77.3,70.7,73.7,70.7,66.7,98,82,49,29.99,29.86,16,2,16,0.02
2013-4-20,72.2,64.4,58.6,69.8,61.2,56.1,97,90,72,30.13,29.92,6,0,6,0.19
2013-4-21,78.3,70.0,59.6,71.7,66.4,57.3,96,89,76,30.13,30.00,14,1,14,0.03
2013-4-22,77.7,68.9,65.4,70.7,66.5,63.6,99,92,73,30.05,29.97,7,0,7,0.08
2013-4-23,77.2,69.2,58.5,66.1,62.9,56.9,98,82,60,30.10,29.99,10,0,10,0.05
2013-4-24,81.0,68.1,54.2,66.2,60.9,53.4,99,80,55,30.12,30.05,15,2,15,0.00
2013-4-25,85.5,71.9,58.5,67.6,63.1,57.6,98,76,46,30.17,30.07,11,1,11,0.00
2013-4-26,84.8,73.8,63.1,71.1,66.3,61.6,97,79,55,30.22,30.12,12,0,12,0.00
2013-4-27,81.8,73.9,65.1,68.4,65.4,60.2,98,77,51,30.21,30.11,14,1,15,0.00
2013-4-28,79.7,73.1,66.6,68.4,64.9,60.6,96,77,54,30.12,29.98,16,2,16,0.00
2013-4-29,85.3,73.2,61.8,69.0,64.5,58.5,97,77,42,30.00,29.87,21,1,21,0.01
2013-4-30,83.8,71.8,65.8,72.2,67.5,65.1,99,88,61,29.98,29.90,10,0,10,0.08
2013-5-1,81.8,72.4,65.2,71.0,67.9,64.6,99,87,63,30.00,29.92,11,0,11,0.01
2013-5-2,74.2,70.5,65.9,70.2,68.5,64.2,97,94,84,29.94,29.79,12,1,13,0.00
2013-5-3,71.0,69.1,67.8,69.1,67.4,65.9,97,95,87,29.81,29.67,21,2,21,0.10
2013-5-4,81.3,73.1,67.7,72.2,68.8,66.2,97,87,68,29.74,29.63,23,3,23,0.24
2013-5-5,79.9,70.4,62.3,68.7,57.8,45.6,95,68,33,29.89,29.69,15,2,15,0.00
2013-5-6,76.7,66.3,57.1,60.1,54.1,49.0,96,67,41,29.96,29.85,16,2,16,0.00
2013-5-7,78.8,65.7,52.1,59.5,55.0,49.7,95,71,46,30.01,29.90,17,2,17,0.00
2013-5-8,81.2,69.2,57.9,65.0,60.6,56.7,98,76,48,30.10,29.98,10,1,10,0.00
2013-5-9,81.4,70.5,58.2,68.0,61.9,57.0,98,76,49,30.11,30.04,12,1,12,0.00
2013-5-10,84.8,73.5,60.3,72.1,66.2,59.4,98,80,48,30.10,29.95,15,2,15,0.00
2013-5-11,88.8,76.5,68.2,72.3,69.4,66.7,97,81,51,30.02,29.90,16,1,16,0.06
2013-5-12,89.5,75.6,66.6,71.3,68.3,64.9,95,80,48,29.99,29.89,14,1,14,0.00
2013-5-13,82.5,70.5,57.7,67.6,60.6,54.6,94,73,43,30.10,29.94,7,0,7,0.00
2013-5-14,80.2,67.0,53.0,60.7,54.4,46.2,96,68,35,30.19,30.10,11,0,11,0.00
2013-5-15,81.8,69.0,54.3,62.5,57.6,52.9,97,71,41,30.19,30.06,12,1,12,0.00
2013-5-16,83.6,71.5,60.5,67.8,62.5,59.1,97,75,46,30.11,30.00,12,1,12,0.00
2013-5-17,83.4,73.7,61.0,70.7,66.2,59.6,97,79,58,30.08,30.01,16,2,16,0.00
2013-5-18,86.0,76.1,63.6,72.9,68.4,62.4,98,79,55,30.10,30.00,13,1,13,0.00
2013-5-19,84.1,76.1,66.2,74.5,70.6,63.7,97,84,68,30.07,29.97,19,2,19,1.51
2013-5-20,86.3,76.1,70.5,74.0,70.8,65.9,97,85,54,30.06,29.97,13,1,14,0.05
2013-5-21,83.3,74.2,70.3,73.4,70.3,68.5,97,88,68,30.02,29.92,12,1,12,0.18
2013-5-22,82.2,74.1,66.9,75.7,70.6,66.0,98,89,73,29.96,29.88,11,1,11,0.32
2013-5-23,89.0,75.4,66.8,74.9,70.2,65.9,98,85,54,29.96,29.88,13,1,13,0.08
2013-5-24,89.7,76.9,66.0,75.2,68.6,64.6,98,78,49,30.07,29.92,6,1,9,0.02
2013-5-25,84.2,73.7,63.7,68.3,62.6,57.0,98,71,43,30.19,30.04,15,1,15,0.00
2013-5-26,81.5,70.0,56.6,65.1,60.0,55.5,97,73,46,30.19,30.12,13,1,13,0.00
2013-5-27,81.7,72.3,60.9,67.6,63.3,59.5,96,75,55,30.18,30.09,14,2,14,0.00
2013-5-28,82.5,75.8,64.9,72.2,68.0,63.0,96,78,64,30.14,30.07,13,3,15,0.00
2013-5-29,83.0,78.4,74.7,74.3,72.4,70.8,90,82,68,30.12,30.04,18,4,18,0.00
2013-5-30,83.3,78.7,75.9,73.9,72.3,69.8,89,81,70,30.12,30.04,19,5,19,0.00
2013-5-31,83.4,78.3,75.2,73.1,71.5,69.9,87,80,68,30.10,30.03,23,5,23,0.00
2013-6-1,81.9,77.9,75.0,74.7,72.8,70.5,92,84,76,30.05,29.97,18,3,18,0.02
2013-6-2,86.0,78.4,73.8,78.1,74.4,71.9,97,88,71,30.00,29.85,13,1,13,0.17
2013-6-3,88.5,77.6,72.1,77.6,73.5,69.0,98,88,64,29.97,29.83,16,1,16,1.58
2013-6-4,87.5,76.0,71.8,76.4,73.0,70.9,98,91,63,30.00,29.90,14,0,14,0.11
2013-6-5,84.2,74.7,70.5,76.6,72.5,69.3,98,93,75,29.99,29.89,13,0,13,1.33
2013-6-6,79.1,75.4,72.7,75.8,73.4,70.2,98,94,77,29.89,29.61,20,4,20,1.25
2013-6-7,89.6,79.9,73.0,75.8,72.9,70.7,93,80,57,29.91,29.69,17,3,17,0.03
2013-6-8,89.7,77.3,71.1,77.7,72.2,68.7,97,86,58,30.05,29.90,20,1,20,0.19
2013-6-9,85.5,77.1,70.5,78.8,73.7,69.6,98,90,74,30.09,30.00,13,1,13,0.28
2013-6-10,88.5,80.5,74.1,79.5,75.1,72.5,98,84,62,30.07,29.98,14,1,14,0.04
2013-6-11,89.1,78.1,73.2,78.2,73.9,71.1,98,88,63,30.05,29.98,10,0,10,0.00
2013-6-12,92.8,81.3,70.7,77.7,73.7,69.8,98,79,54,30.04,29.95,9,1,9,0.00
2013-6-13,94.0,83.4,73.4,77.2,72.9,69.4,95,73,47,29.99,29.83,12,1,12,0.00
2013-6-14,91.2,81.8,74.1,76.1,73.2,69.2,95,77,51,29.90,29.79,14,1,14,0.00
2013-6-15,85.3,80.1,77.1,74.8,72.2,69.1,90,77,64,30.05,29.88,15,2,15,0.01
2013-6-16,84.7,80.1,77.1,76.6,73.7,70.6,88,81,74,30.07,30.00,14,2,14,0.00
2013-6-17,89.2,79.7,73.1,80.2,75.4,70.7,98,87,68,30.05,29.94,15,1,15,1.10
2013-6-18,92.0,80.5,71.7,76.4,72.9,70.1,95,79,52,30.02,29.91,15,1,15,0.06
2013-6-19,90.8,80.5,73.6,78.8,74.8,72.2,97,84,61,30.00,29.91,14,1,14,0.05
2013-6-20,92.4,80.0,73.8,77.7,74.4,71.9,96,84,54,30.05,29.97,11,0,11,0.09
2013-6-21,89.1,77.9,71.1,77.6,72.5,69.6,98,85,61,30.08,30.01,14,0,14,0.01
2013-6-22,85.9,78.1,71.0,76.4,73.0,69.5,97,85,64,30.10,30.03,14,1,14,0.23
2013-6-23,87.2,79.0,70.6,77.2,73.8,69.7,98,85,67,30.12,30.04,12,1,12,0.00
2013-6-24,88.3,81.1,73.8,76.8,74.6,72.3,96,82,65,30.16,30.06,16,2,16,0.00
2013-6-25,88.8,80.3,72.0,76.9,74.1,70.6,97,82,61,30.14,30.02,13,1,13,0.00
2013-6-26,89.8,79.8,73.7,78.3,75.0,72.3,97,86,60,30.05,29.98,14,1,14,0.15
2013-6-27,90.4,79.1,70.8,79.2,73.9,69.6,97,85,61,30.01,29.88,10,0,10,0.43
2013-6-28,91.0,79.6,74.2,77.2,73.8,71.2,95,83,56,29.92,29.79,12,1,15,0.01
2013-6-29,88.3,80.0,73.9,77.9,73.8,71.1,96,82,62,29.84,29.74,19,2,21,0.05
2013-6-30,88.8,76.9,71.5,78.1,73.3,69.5,97,89,66,29.86,29.77,31,2,34,1.10
2013-7-1,86.0,76.5,72.9,75.3,72.5,70.3,96,88,66,30.01,29.82,19,2,19,0.31
2013-7-2,86.3,75.6,72.9,78.4,73.4,71.4,97,93,74,30.08,29.95,15,1,15,0.83
2013-7-3,87.0,79.7,73.2,79.0,75.4,72.0,97,87,71,30.11,30.03,16,2,16,0.10
2013-7-4,87.3,80.7,74.1,76.9,74.8,72.3,95,83,68,30.13,30.06,21,3,21,0.00
2013-7-5,86.9,80.6,74.9,77.5,74.6,72.8,96,83,65,30.13,30.05,21,3,21,0.00
2013-7-6,86.8,81.2,75.1,76.5,74.6,72.6,94,81,66,30.11,30.03,19,3,19,0.00
2013-7-7,87.2,80.6,73.8,77.0,74.5,71.9,97,83,63,30.12,30.03,16,2,16,0.00
2013-7-8,88.8,81.5,74.9,77.4,75.2,72.7,97,82,63,30.14,30.07,15,1,15,0.00
2013-7-9,88.7,80.6,72.3,77.3,74.1,70.7,98,82,61,30.15,30.05,13,1,13,0.00
2013-7-10,87.4,80.0,72.2,76.9,73.8,71.0,98,82,64,30.07,29.95,13,1,14,0.00
2013-7-11,91.3,80.3,73.1,77.1,73.0,70.0,96,80,52,30.00,29.87,16,1,16,0.00
2013-7-12,89.0,77.8,73.0,77.3,73.7,71.6,97,88,60,29.92,29.85,6,0,7,0.28
2013-7-13,86.6,77.9,72.7,77.4,73.6,71.2,97,87,69,29.97,29.87,16,1,16,0.03
2013-7-14,81.9,76.2,71.2,75.7,72.9,69.9,97,90,77,30.08,29.94,16,1,16,0.03
2013-7-15,86.1,78.1,69.2,78.6,73.9,68.3,98,87,72,30.11,30.02,14,1,14,0.11
2013-7-16,86.3,80.5,73.4,77.2,74.7,72.0,97,83,69,30.15,30.08,17,2,17,0.14
2013-7-17,87.4,81.0,75.6,77.3,75.2,73.6,96,83,67,30.14,30.05,14,1,14,0.00
2013-7-18,86.6,78.7,72.9,76.9,73.2,68.5,98,84,63,30.10,30.02,12,1,12,0.00
2013-7-19,87.8,77.5,71.3,79.0,72.6,70.1,97,86,64,30.10,30.00,20,1,20,1.38
2013-7-20,90.0,76.6,72.0,78.6,73.5,70.5,98,91,62,30.07,29.99,20,0,20,0.25
2013-7-21,90.5,77.3,71.9,80.4,73.8,71.0,98,90,61,30.09,29.98,11,0,11,0.04
2013-7-22,89.8,77.1,72.3,78.4,74.0,69.9,97,91,62,30.09,30.01,19,1,19,0.49
2013-7-23,84.1,76.9,73.3,78.6,74.1,72.0,98,91,75,30.04,29.91,21,2,21,0.32
2013-7-24,86.9,79.5,74.7,78.1,74.9,71.9,97,86,70,29.94,29.81,15,2,15,0.00
2013-7-25,88.2,79.8,75.2,77.9,74.9,72.7,96,85,65,29.93,29.81,17,2,17,0.03
2013-7-26,91.8,80.9,72.6,79.8,75.6,71.5,98,85,60,29.97,29.90,9,0,9,0.01
2013-7-27,91.0,79.7,72.7,79.3,74.9,71.8,98,86,59,29.96,29.86,12,0,12,0.00
2013-7-28,89.7,77.5,72.8,78.0,73.7,71.3,97,89,63,30.03,29.90,10,0,11,0.46
2013-7-29,90.2,80.2,70.4,78.2,74.4,69.5,98,84,63,30.12,29.99,12,1,12,0.01
2013-7-30,91.0,82.4,74.6,79.5,75.6,71.5,97,81,55,30.14,30.05,12,1,13,0.00
2013-7-31,91.3,81.0,74.2,78.9,75.8,71.3,98,85,61,30.10,29.98,15,1,15,0.15
2013-8-1,91.5,79.1,72.4,77.6,73.1,70.4,97,83,52,30.04,29.92,15,1,15,0.04
2013-8-2,89.5,80.4,72.4,79.1,74.6,71.1,97,83,63,30.00,29.91,11,1,11,0.00
2013-8-3,93.6,80.2,73.4,78.1,74.5,71.7,97,84,55,30.04,29.95,15,1,15,2.44
2013-8-4,90.3,79.1,74.5,79.9,75.6,72.8,98,90,65,30.03,29.93,21,1,21,0.08
2013-8-5,89.7,79.8,76.0,81.8,76.5,73.6,98,90,72,29.97,29.88,10,0,10,0.09
2013-8-6,90.0,80.9,73.0,80.4,76.0,72.1,98,86,69,29.94,29.86,12,1,12,0.01
2013-8-7,89.9,82.5,76.2,79.5,77.0,74.2,96,84,68,29.95,29.89,14,2,14,0.00
2013-8-8,89.2,82.5,76.5,79.5,76.4,72.9,96,83,66,30.01,29.92,15,2,15,0.08
2013-8-9,89.3,82.8,77.4,78.2,76.3,74.2,94,82,64,30.05,29.94,15,2,15,0.00
2013-8-10,89.7,82.3,74.4,79.9,76.2,72.9,97,83,62,30.10,30.01,13,1,14,0.00
2013-8-11,91.5,81.9,74.0,80.4,75.8,72.8,98,83,58,30.13,30.04,12,1,12,0.00
2013-8-12,93.1,82.2,73.8,79.8,75.0,71.2,97,80,61,30.10,29.97,12,1,12,0.00
2013-8-13,94.3,82.9,74.2,78.9,75.1,72.9,96,79,56,30.02,29.89,11,1,11,0.00
2013-8-14,93.3,82.0,75.1,80.3,76.0,72.6,95,83,57,29.97,29.85,15,1,15,0.04
2013-8-15,93.5,82.0,73.6,78.4,74.2,69.9,97,79,47,30.00,29.88,11,1,14,0.00
2013-8-16,90.3,80.2,74.7,79.1,74.9,71.4,95,85,60,30.03,29.92,17,0,17,0.00
2013-8-17,89.5,81.7,75.5,81.5,76.9,72.7,95,86,71,30.07,29.97,16,1,16,0.00
2013-8-18,89.5,82.8,76.4,78.8,76.7,75.4,97,83,65,30.07,29.99,17,2,17,0.00
2013-8-19,91.5,81.8,75.5,79.3,76.2,73.1,98,84,57,30.06,29.95,13,1,13,0.03
2013-8-20,90.9,82.7,74.8,78.6,76.2,73.2,97,82,59,30.07,29.98,14,2,14,0.00
2013-8-21,90.7,81.6,78.3,80.0,77.1,75.1,95,87,63,30.10,30.01,14,1,14,0.08
2013-8-22,86.3,79.5,75.8,80.3,76.8,73.9,97,91,79,30.06,29.95,12,0,12,0.42
2013-8-23,88.5,79.2,74.9,79.5,76.2,74.0,98,91,70,30.00,29.93,9,0,10,0.06
2013-8-24,88.0,77.5,72.8,79.8,75.4,71.2,98,94,70,30.09,29.97,17,0,17,2.25
2013-8-25,87.4,79.2,73.7,78.5,75.0,73.1,98,88,70,30.14,30.05,10,0,10,0.06
2013-8-26,88.4,79.2,74.0,79.9,74.9,71.8,97,87,70,30.11,30.01,22,0,22,1.06
2013-8-27,87.5,78.4,71.5,76.7,71.9,68.5,98,82,61,30.04,29.97,12,1,12,0.00
2013-8-28,87.5,78.2,68.5,74.7,69.8,67.3,98,77,54,30.03,29.95,7,1,10,0.00
2013-8-29,93.3,80.9,70.9,75.6,72.0,68.6,96,76,46,30.00,29.88,11,1,11,0.00
2013-8-30,93.5,82.1,72.7,78.4,73.6,69.3,96,77,50,29.94,29.84,11,1,12,0.00
2013-8-31,94.4,80.7,71.1,77.4,73.3,69.5,96,80,51,29.95,29.84,22,1,22,0.61
2013-9-1,92.4,79.1,71.9,77.6,73.0,70.5,97,83,50,29.96,29.85,16,1,16,0.01
2013-9-2,93.0,81.2,72.9,77.6,73.6,70.5,97,80,51,29.98,29.86,9,1,9,0.00
2013-9-3,92.2,81.3,73.8,78.7,75.0,72.8,97,82,58,29.98,29.88,10,0,10,0.00
2013-9-4,90.8,80.4,74.6,79.9,75.6,72.7,96,86,65,30.06,29.94,13,0,13,0.02
2013-9-5,92.3,81.2,72.1,79.7,74.7,70.9,97,82,60,30.07,29.97,9,0,9,0.00
2013-9-6,88.8,76.6,72.3,79.3,74.3,69.6,98,93,68,30.03,29.94,11,0,11,1.23
2013-9-7,88.7,78.6,72.0,79.5,73.6,71.4,98,86,62,29.98,29.90,9,0,9,0.01
2013-9-8,88.3,79.0,70.6,77.2,72.8,69.7,98,83,63,29.94,29.86,9,0,9,0.00
2013-9-9,88.2,78.2,67.9,75.4,71.0,67.0,98,80,58,30.01,29.91,13,1,13,0.00
2013-9-10,88.6,78.9,70.8,76.5,72.3,69.6,97,82,60,30.08,29.97,16,1,21,0.08
2013-9-11,88.3,81.5,72.5,76.9,74.4,71.6,98,80,62,30.06,29.98,13,1,13,0.01
2013-9-12,85.2,77.5,72.1,79.1,74.3,71.2,98,90,72,30.00,29.87,7,0,7,0.68
2013-9-13,90.6,79.5,70.2,77.6,73.0,69.4,98,82,55,29.88,29.76,11,1,11,0.01
2013-9-14,91.2,81.7,74.4,77.6,74.9,72.1,97,81,59,29.95,29.79,9,0,10,0.00
2013-9-15,89.7,80.4,74.0,80.0,75.6,70.2,98,86,63,30.05,29.93,20,1,20,0.00
2013-9-16,89.3,80.5,72.5,78.7,74.2,71.5,97,82,62,30.05,29.97,13,1,13,0.00
2013-9-17,89.3,80.1,72.2,77.7,74.2,71.3,98,83,64,30.05,29.94,13,1,13,0.00
2013-9-18,86.6,79.7,73.1,76.9,73.3,70.1,97,82,66,30.03,29.94,14,1,15,0.09
2013-9-19,86.3,79.2,75.4,76.8,71.9,66.6,91,79,67,30.03,29.95,14,1,14,0.07
2013-9-20,87.6,77.2,67.4,74.5,69.9,66.2,97,80,58,30.01,29.89,10,0,10,0.00
2013-9-21,88.4,77.4,67.0,72.6,69.3,65.4,98,78,49,29.92,29.74,11,1,12,0.00
2013-9-22,90.6,77.8,73.1,75.5,72.9,70.3,97,86,58,29.82,29.70,14,1,14,0.10
2013-9-23,82.8,76.3,73.8,78.7,74.8,73.1,98,95,84,29.93,29.81,9,0,9,0.23
2013-9-24,85.4,76.5,71.2,77.5,73.8,70.2,98,92,73,29.93,29.79,14,1,14,1.00
2013-9-25,84.0,76.4,71.4,75.1,73.0,70.5,98,90,71,29.81,29.72,13,1,14,0.01
2013-9-26,92.0,79.5,71.2,79.2,74.1,68.7,97,85,55,29.83,29.72,15,0,15,0.00
2013-9-27,84.8,73.9,69.0,76.2,71.0,67.8,98,91,70,29.93,29.80,5,0,6,1.53
2013-9-28,83.8,75.7,71.0,75.4,70.8,67.8,98,86,64,29.99,29.89,12,0,12,0.85
2013-9-29,86.5,75.9,67.7,74.7,70.0,66.5,97,83,63,29.96,29.89,9,0,9,0.00
2013-9-30,85.6,75.5,66.8,74.8,70.0,65.9,98,84,64,29.99,29.88,11,0,11,0.09
2013-10-1,86.1,77.4,70.2,74.0,70.4,68.0,95,80,62,30.05,29.95,7,0,7,0.00
2013-10-2,85.8,75.3,66.7,73.1,68.7,65.5,97,82,60,30.05,29.99,11,0,11,0.00
2013-10-3,86.8,75.9,66.5,75.7,70.2,65.5,97,84,60,30.05,29.97,11,1,11,0.00
2013-10-4,89.3,77.4,69.3,75.8,71.6,68.4,98,84,60,30.05,29.98,8,0,8,0.00
2013-10-5,87.5,77.5,68.1,77.8,72.2,67.2,98,85,64,30.03,29.94,9,0,11,0.08
2013-10-6,87.8,78.4,72.2,78.0,74.0,71.0,98,87,64,29.95,29.84,10,0,11,0.16
2013-10-7,85.8,75.9,72.6,76.0,72.9,70.9,97,91,70,29.84,29.71,17,1,17,0.19
2013-10-8,86.8,76.0,73.1,77.8,73.6,71.9,98,92,71,29.91,29.72,10,0,10,0.39
2013-10-9,79.3,72.8,66.0,72.8,69.1,64.2,94,88,75,30.00,29.89,5,0,6,0.00
2013-10-10,83.8,72.0,62.4,72.2,66.5,61.4,97,84,63,30.03,29.94,7,0,7,0.00
2013-10-11,88.2,72.1,61.9,70.1,65.2,61.0,99,81,45,30.02,29.91,9,0,9,0.01
2013-10-12,87.4,73.5,64.6,70.8,65.2,59.3,98,78,44,30.01,29.93,6,0,6,0.01
2013-10-13,86.5,73.5,62.9,68.5,64.9,61.7,97,77,46,30.05,29.96,5,0,5,0.00
2013-10-14,84.7,73.7,65.6,74.1,68.6,64.4,97,85,62,30.01,29.91,6,0,9,0.07
2013-10-15,85.3,73.5,66.6,75.4,70.7,65.6,98,91,68,29.95,29.85,6,0,6,0.09
2013-10-16,87.5,75.9,70.2,75.9,72.1,69.5,98,89,61,29.94,29.86,4,0,4,0.00
2013-10-17,85.3,74.8,67.8,75.3,71.3,67.2,98,90,64,29.95,29.87,2,0,9,0.01
2013-10-18,87.3,76.4,67.5,75.2,71.3,66.9,98,86,58,29.96,29.87,11,1,12,0.01
2013-10-19,88.7,78.1,69.4,76.5,72.9,68.5,98,85,59,29.93,29.82,10,1,11,0.00
2013-10-20,84.5,77.1,71.2,75.8,72.7,69.4,97,87,67,29.94,29.82,6,0,6,0.00
2013-10-21,86.3,77.1,70.4,78.2,73.3,69.0,98,89,72,29.97,29.89,6,0,6,0.00
2013-10-22,88.8,78.6,71.4,77.0,72.6,68.8,98,83,58,29.92,29.75,12,1,12,0.00
2013-10-23,84.2,73.6,61.4,71.0,63.8,54.6,96,74,43,29.98,29.75,10,0,10,0.00
2013-10-24,73.5,63.6,57.6,61.7,55.6,49.3,93,76,59,30.13,29.97,3,0,4,0.00
2013-10-25,73.8,58.1,53.8,58.7,54.7,52.5,96,89,55,30.20,30.12,2,0,2,0.00